Jamaica Bay — WDJ5037 — position and weather

sailwx.info

Track history (hours):
 
Tides and Currents Weather Stations Pressure Air Temp Water Temp Dewpoint Dewpoint Depression Visibility Wind Speed Wind Dir Waves Ship Positions

Jamaica Bay

Owner: Hornblower Metro Ferry Fleet LLC, New York, NY. More information available from US FCC via Universal Licensing System and Coast Guard Vessel Documentation Center.

Last reported at 2018-Jul-22 17:20 UTC. Time now 2018-Jul-22 17:58 UTC.
Position N 40°36' W 074°02'.

Length 28 m.

Type: Passenger vessel. MMSI: 367783630.

Date/timePositionNaut miles runAvg speedWind from/ knotsBaromVisibWave heightAir tempDewpointWater temp
2018-Jul-22 17:20N 40°36' W 074°02'3 7.4
2018-Jul-22 17:00N 40°39' W 074°02'3 4.8
2018-Jul-22 16:18N 40°42' W 074°00'6 3.7
2018-Jul-22 14:45N 40°37' W 074°03'2 9.3
2018-Jul-22 14:30N 40°39' W 074°02'3 7.1
2018-Jul-22 14:00N 40°42' W 074°00'8 4.7
2018-Jul-22 12:19N 40°34' W 074°01'514.3
2018-Jul-22 12:00N 40°39' W 074°02'2 3.8
2018-Jul-22 11:28N 40°41' W 074°01'8 6.9
2018-Jul-22 10:15N 40°34' W 073°55'617.0
2018-Jul-22 09:56N 40°35' W 074°02'717.2
2018-Jul-22 09:30N 40°43' W 074°03'0 0.0
2018-Jul-22 02:49N 40°43' W 074°02'2 5.7
2018-Jul-22 02:30N 40°42' W 074°00'9 6.2
2018-Jul-22 01:02N 40°34' W 073°55'520.7
2018-Jul-22 00:49N 40°34' W 074°01'514.2
2018-Jul-22 00:30N 40°39' W 074°02'4 6.1
2018-Jul-21 23:56N 40°42' W 074°00'512.7
2018-Jul-21 23:30N 40°37' W 074°03'6 5.8
2018-Jul-21 22:28N 40°34' W 073°56'714.4
2018-Jul-21 22:00N 40°39' W 074°02'4 5.8
2018-Jul-21 21:24N 40°42' W 074°00'11 9.3
2018-Jul-21 20:16N 40°35' W 073°50'519.5
2018-Jul-21 20:00N 40°34' W 073°56'613.0
2018-Jul-21 19:30N 40°39' W 074°02'4 7.0
2018-Jul-21 19:00N 40°42' W 074°00'10 8.6
2018-Jul-21 17:47N 40°35' W 073°50'622.5
2018-Jul-21 17:30N 40°34' W 073°58'611.1
2018-Jul-21 17:00N 40°39' W 074°02'4 6.8
2018-Jul-21 16:30N 40°42' W 074°00'10 8.4
2018-Jul-21 15:15N 40°35' W 073°50'622.9
2018-Jul-21 14:59N 40°34' W 073°58'611.7
2018-Jul-21 14:30N 40°39' W 074°02'3 6.6
2018-Jul-21 14:00N 40°42' W 074°00'612.3
2018-Jul-21 13:30N 40°36' W 074°02'7 8.5
2018-Jul-21 12:37N 40°34' W 073°53'323.4
2018-Jul-21 12:30N 40°34' W 073°56'713.2
2018-Jul-21 12:00N 40°39' W 074°02'3 5.3
2018-Jul-21 11:31N 40°41' W 074°01'9 6.6
2018-Jul-21 10:07N 40°34' W 073°53'321.4
2018-Jul-21 10:00N 40°34' W 073°56'918.8
2018-Jul-21 09:30N 40°42' W 074°02'1 2.1
2018-Jul-21 08:59N 40°43' W 074°03'0 0.0
2018-Jul-20 23:26N 40°43' W 074°02'2 3.9
2018-Jul-20 22:59N 40°42' W 074°00'511.2
2018-Jul-20 22:30N 40°37' W 074°03'1010.7
2018-Jul-20 21:35N 40°35' W 073°50'111.2
2018-Jul-20 21:30N 40°35' W 073°51'918.8
2018-Jul-20 21:00N 40°38' W 074°03'4 7.2
2018-Jul-20 20:25N 40°42' W 074°00'0 0.0
2018-Jul-20 19:58N 40°42' W 074°00'0 0.0
2018-Jul-20 19:28N 40°42' W 074°00'3 6.1
2018-Jul-20 19:00N 40°39' W 074°01'10 9.0
2018-Jul-20 17:56N 40°35' W 073°50'920.3
2018-Jul-20 17:31N 40°35' W 074°02'713.7
2018-Jul-20 16:59N 40°42' W 074°00'11 7.6
2018-Jul-20 15:36N 40°35' W 073°50'219.1
2018-Jul-20 15:30N 40°34' W 073°53'817.1
2018-Jul-20 15:00N 40°40' W 074°01'1 2.2
2018-Jul-20 14:31N 40°41' W 074°01'9 8.6
2018-Jul-20 13:28N 40°35' W 073°53'818.2
2018-Jul-20 13:00N 40°39' W 074°02'2 4.5
2018-Jul-20 12:31N 40°42' W 074°00'816.5
2018-Jul-20 12:00N 40°34' W 073°56'4 6.5
2018-Jul-20 11:27N 40°35' W 073°51'920.1
2018-Jul-20 11:00N 40°38' W 074°03'4 8.7
2018-Jul-20 10:30N 40°42' W 074°00'2 3.6
2018-Jul-20 09:55N 40°43' W 074°03'0 0.0
2018-Jul-19 23:01N 40°43' W 074°02'0 0.0
2018-Jul-19 23:01N 40°43' W 074°02'4 7.5
2018-Jul-19 22:30N 40°39' W 074°02'1011.9
2018-Jul-19 21:41N 40°35' W 073°50'419.7
2018-Jul-19 21:30N 40°34' W 073°55'918.2
2018-Jul-19 21:01N 40°41' W 074°02'1 2.9
2018-Jul-19 20:30N 40°42' W 074°00'1010.9
2018-Jul-19 19:33N 40°35' W 073°50'214.4
2018-Jul-19 19:26N 40°35' W 073°52'919.9
2018-Jul-19 19:00N 40°38' W 074°03'3 6.5
2018-Jul-19 18:30N 40°41' W 074°01'910.5
2018-Jul-19 17:37N 40°35' W 073°52'326.1
2018-Jul-19 17:29N 40°34' W 073°56'817.2
2018-Jul-19 17:00N 40°41' W 074°01'1 1.8
2018-Jul-19 16:30N 40°42' W 074°00'10 9.8
2018-Jul-19 15:29N 40°35' W 073°50'1020.4
2018-Jul-19 15:00N 40°38' W 074°03'5 9.3
2018-Jul-19 14:30N 40°42' W 074°00'10 9.3
2018-Jul-19 13:28N 40°35' W 073°51'920.3
2018-Jul-19 13:01N 40°38' W 074°03'4 8.4
2018-Jul-19 12:30N 40°42' W 074°00'1110.5
2018-Jul-19 11:30N 40°35' W 073°50'1020.0
2018-Jul-19 11:00N 40°37' W 074°03'510.5
2018-Jul-19 10:30N 40°42' W 074°00'2 0.2
2018-Jul-18 23:55N 40°44' W 074°01'2 3.7
2018-Jul-18 23:28N 40°43' W 074°02'2 3.4
2018-Jul-18 22:58N 40°42' W 074°00'612.6
2018-Jul-18 22:30N 40°36' W 074°02'1011.4
2018-Jul-18 21:40N 40°35' W 073°50'620.5
2018-Jul-18 21:23N 40°34' W 073°57'820.3
2018-Jul-18 21:00N 40°41' W 074°01'0 0.5
2018-Jul-18 20:31N 40°41' W 074°01'10 9.5
2018-Jul-18 19:29N 40°35' W 073°51'919.4
2018-Jul-18 19:00N 40°38' W 074°03'4 8.5
2018-Jul-18 18:30N 40°42' W 074°00'1010.6
2018-Jul-18 17:31N 40°35' W 073°50'0 8.3
2018-Jul-18 17:30N 40°35' W 073°51'1019.6
2018-Jul-18 17:00N 40°38' W 074°03'4 7.3
2018-Jul-18 16:30N 40°41' W 074°01'1010.8
2018-Jul-18 15:34N 40°35' W 073°50'422.7
2018-Jul-18 15:24N 40°34' W 073°55'718.6
2018-Jul-18 15:00N 40°39' W 074°02'2 3.6
2018-Jul-18 14:30N 40°41' W 074°01'9 8.3
2018-Jul-18 13:26N 40°34' W 073°53'819.7
2018-Jul-18 13:00N 40°38' W 074°02'3 5.8
2018-Jul-18 12:30N 40°41' W 074°01'10 9.8
2018-Jul-18 11:30N 40°35' W 073°51'1010.4
2018-Jul-18 10:30N 40°42' W 074°00'2 4.1
2018-Jul-18 10:00N 40°43' W 074°03'0 0.0
2018-Jul-17 23:28N 40°43' W 074°03'0 0.8
2018-Jul-17 22:59N 40°43' W 074°02'2 3.8
2018-Jul-17 22:31N 40°42' W 074°00'10 8.9
2018-Jul-17 21:25N 40°35' W 073°51'921.1
2018-Jul-17 21:00N 40°37' W 074°03'510.5
2018-Jul-17 20:30N 40°42' W 074°00'10 9.5
2018-Jul-17 19:27N 40°35' W 073°51'920.6
2018-Jul-17 19:00N 40°37' W 074°03'510.1
2018-Jul-17 18:30N 40°42' W 074°00'1010.5
2018-Jul-17 17:30N 40°35' W 073°50'1019.4
2018-Jul-17 17:00N 40°37' W 074°03'5 9.8
2018-Jul-17 16:30N 40°42' W 074°00'8 6.8
2018-Jul-17 15:17N 40°34' W 073°57'620.0
2018-Jul-17 14:59N 40°39' W 074°02'3 7.1
2018-Jul-17 14:30N 40°42' W 074°00'1010.4
2018-Jul-17 13:30N 40°35' W 073°50'1019.6
2018-Jul-17 13:00N 40°38' W 074°03'4 8.7
2018-Jul-17 12:31N 40°42' W 074°00'1010.8
2018-Jul-17 11:33N 40°35' W 073°50'217.9
2018-Jul-17 11:27N 40°35' W 073°52'819.3
2018-Jul-17 11:00N 40°39' W 074°02'4 6.6
2018-Jul-17 10:28N 40°42' W 074°00'2 4.3
2018-Jul-17 09:59N 40°43' W 074°03'0 0.0
2018-Jul-16 22:52N 40°43' W 074°02'2 4.9
2018-Jul-16 22:30N 40°42' W 074°00'10 9.7
2018-Jul-16 21:26N 40°35' W 073°50'921.7
2018-Jul-16 21:00N 40°36' W 074°03'611.9
2018-Jul-16 20:30N 40°42' W 074°00'1110.7
2018-Jul-16 19:31N 40°35' W 073°50'0 9.0
2018-Jul-16 19:30N 40°35' W 073°50'1019.6
2018-Jul-16 19:00N 40°37' W 074°03'510.4
2018-Jul-16 18:30N 40°42' W 074°00'1111.4
2018-Jul-16 17:35N 40°35' W 073°50'111.5
2018-Jul-16 17:29N 40°35' W 073°51'919.0
2018-Jul-16 17:00N 40°38' W 074°03'4 8.3
2018-Jul-16 16:30N 40°42' W 074°00'1011.1
2018-Jul-16 15:34N 40°35' W 073°50'218.1
2018-Jul-16 15:27N 40°34' W 073°53'818.9
2018-Jul-16 15:00N 40°39' W 074°02'4 7.7
2018-Jul-16 14:30N 40°42' W 074°00'1110.8
2018-Jul-16 13:32N 40°35' W 073°50'221.2
2018-Jul-16 13:26N 40°35' W 073°53'819.7
2018-Jul-16 13:00N 40°39' W 074°02'3 6.5
2018-Jul-16 12:30N 40°41' W 074°00'915.9
2018-Jul-16 11:57N 40°34' W 073°54'1 1.6
2018-Jul-16 11:26N 40°35' W 073°53'819.5
2018-Jul-16 11:01N 40°39' W 074°02'4 7.5
2018-Jul-16 10:31N 40°42' W 074°00'2 3.4
2018-Jul-16 10:00N 40°43' W 074°02'0 0.0
2018-Jul-16 02:40N 40°43' W 074°02'210.5
2018-Jul-16 02:30N 40°42' W 074°00'611.0
2018-Jul-16 01:59N 40°37' W 074°03'1011.6
2018-Jul-16 01:09N 40°35' W 073°50'320.5
2018-Jul-16 00:59N 40°34' W 073°54'715.2
2018-Jul-16 00:30N 40°39' W 074°02'4 6.3
2018-Jul-15 23:57N 40°42' W 074°00'10 7.7
2018-Jul-15 22:36N 40°35' W 073°51'326.3
2018-Jul-15 22:30N 40°34' W 073°54'714.2
2018-Jul-15 21:59N 40°39' W 074°02'4 7.0
2018-Jul-15 21:29N 40°42' W 074°00'5 3.0
2018-Jul-15 19:42N 40°37' W 074°03'2 9.7
2018-Jul-15 19:30N 40°39' W 074°02'3 6.6
2018-Jul-15 18:58N 40°42' W 074°00'4 2.3
2018-Jul-15 17:14N 40°38' W 074°02'2 6.7
2018-Jul-15 17:00N 40°40' W 074°01'2 3.2
2018-Jul-15 16:15N 40°42' W 074°00'6 4.1
2018-Jul-15 14:46N 40°36' W 074°02'3 9.6
2018-Jul-15 14:29N 40°39' W 074°02'3 6.1
2018-Jul-15 14:00N 40°42' W 074°00'5 3.2
2018-Jul-15 12:17N 40°36' W 074°02'3 9.4
2018-Jul-15 12:00N 40°39' W 074°02'3 6.2
2018-Jul-15 11:30N 40°42' W 074°00'9 6.4
2018-Jul-15 10:08N 40°34' W 073°56'425.7
2018-Jul-15 10:00N 40°34' W 074°01'917.7
2018-Jul-15 09:31N 40°43' W 074°03'0 0.1
2018-Jul-15 08:59N 40°43' W 074°03'0 0.1
2018-Jul-15 02:57N 40°43' W 074°02'2 4.9
2018-Jul-15 02:30N 40°41' W 074°01'10 8.1
2018-Jul-15 01:15N 40°35' W 073°50'521.9
2018-Jul-15 01:00N 40°34' W 073°57'713.5
2018-Jul-15 00:30N 40°40' W 074°02'2 4.1
2018-Jul-15 00:00N 40°41' W 074°00'10 8.0
2018-Jul-14 22:44N 40°35' W 073°50'623.3
2018-Jul-14 22:29N 40°34' W 073°57'612.8
2018-Jul-14 22:01N 40°39' W 074°02'1 2.4
2018-Jul-14 21:30N 40°40' W 074°01'10 8.5
2018-Jul-14 20:22N 40°35' W 073°50'822.9
2018-Jul-14 20:00N 40°35' W 074°01'713.7
2018-Jul-14 19:28N 40°42' W 074°00'511.2
2018-Jul-14 19:00N 40°37' W 074°03'1010.0
2018-Jul-14 18:00N 40°35' W 073°50'918.2
2018-Jul-14 17:30N 40°36' W 074°02'612.3
2018-Jul-14 17:00N 40°42' W 074°00'0 0.6
2018-Jul-14 16:30N 40°42' W 074°01'10 9.2
2018-Jul-14 15:24N 40°35' W 073°50'614.2
2018-Jul-14 15:00N 40°34' W 073°57'612.2
2018-Jul-14 14:30N 40°39' W 074°02'2 2.2
2018-Jul-14 13:30N 40°37' W 074°02'8 9.1
2018-Jul-14 12:38N 40°35' W 073°52'426.4
2018-Jul-14 12:28N 40°34' W 073°58'613.0
2018-Jul-14 12:00N 40°39' W 074°02'3 6.2
2018-Jul-14 11:30N 40°42' W 074°00'611.6
2018-Jul-14 11:01N 40°37' W 074°02'1018.7
2018-Jul-14 10:30N 40°35' W 073°50'3 6.9
2018-Jul-14 10:00N 40°34' W 073°54'917.5
2018-Jul-14 09:30N 40°41' W 074°02'2 4.1
2018-Jul-14 09:00N 40°43' W 074°03'0 0.0
2018-Jul-13 23:42N 40°43' W 074°02'0 0.0
2018-Jul-13 23:30N 40°43' W 074°02'2 3.5
2018-Jul-13 23:00N 40°42' W 074°00'11 9.1
2018-Jul-13 21:51N 40°35' W 073°50'823.7
2018-Jul-13 21:30N 40°34' W 074°01'815.5
2018-Jul-13 20:59N 40°42' W 074°00'1013.0
2018-Jul-13 20:15N 40°35' W 073°53'2 4.5
2018-Jul-13 19:49N 40°35' W 073°50'823.4
2018-Jul-13 19:28N 40°34' W 074°01'815.6
2018-Jul-13 18:58N 40°42' W 074°00'10 8.3
2018-Jul-13 17:43N 40°35' W 073°51'421.7
2018-Jul-13 17:30N 40°34' W 073°56'916.9
2018-Jul-13 16:59N 40°42' W 074°00'510.3
2018-Jul-13 16:30N 40°38' W 074°03'1012.0
2018-Jul-13 15:41N 40°35' W 073°50'316.3
2018-Jul-13 15:30N 40°34' W 073°54'816.5
2018-Jul-13 15:00N 40°40' W 074°01'0 0.0
2018-Jul-13 14:30N 40°40' W 074°01'9 8.7
2018-Jul-13 13:30N 40°34' W 073°53'816.6
2018-Jul-13 13:00N 40°39' W 074°02'3 5.2
2018-Jul-13 12:30N 40°41' W 074°00'917.2
2018-Jul-13 12:00N 40°34' W 073°55'4 7.1
2018-Jul-13 11:30N 40°35' W 073°50'1019.4
2018-Jul-13 11:00N 40°38' W 074°03'5 8.5
2018-Jul-13 10:28N 40°42' W 074°00'2 4.4
2018-Jul-13 09:59N 40°43' W 074°03'0 0.0
2018-Jul-12 23:18N 40°43' W 074°03'0 1.1
2018-Jul-12 22:59N 40°43' W 074°02'2 3.6
2018-Jul-12 22:30N 40°42' W 074°00'1010.0
2018-Jul-12 21:29N 40°35' W 073°51'1020.4
2018-Jul-12 21:00N 40°38' W 074°03'5 9.1
2018-Jul-12 20:30N 40°42' W 074°00'10 9.8
2018-Jul-12 19:30N 40°35' W 073°51'918.1
2018-Jul-12 19:00N 40°39' W 074°02'0 0.7
2018-Jul-12 18:30N 40°40' W 074°01'1012.1
2018-Jul-12 17:42N 40°35' W 073°50'419.0
2018-Jul-12 17:29N 40°34' W 073°55'  
Track history (hours):
 
Tides and Currents Weather Stations Pressure Air Temp Water Temp Dewpoint Dewpoint Depression Visibility Wind Speed Wind Dir Waves Ship Positions

Jamaica Bay

Owner: Hornblower Metro Ferry Fleet LLC, New York, NY. More information available from US FCC via Universal Licensing System and Coast Guard Vessel Documentation Center.

Last reported at 2018-Jul-22 17:20 UTC. Time now 2018-Jul-22 17:58 UTC.
Position N 40°36' W 074°02'.

Length 28 m.

Type: Passenger vessel. MMSI: 367783630.

Date/timePositionNaut miles runAvg speedWind from/ knotsBaromVisibWave heightAir tempDewpointWater temp
2018-Jul-22 17:20N 40°36' W 074°02'3 7.4
2018-Jul-22 17:00N 40°39' W 074°02'3 4.8
2018-Jul-22 16:18N 40°42' W 074°00'6 3.7
2018-Jul-22 14:45N 40°37' W 074°03'2 9.3
2018-Jul-22 14:30N 40°39' W 074°02'3 7.1
2018-Jul-22 14:00N 40°42' W 074°00'8 4.7
2018-Jul-22 12:19N 40°34' W 074°01'514.3
2018-Jul-22 12:00N 40°39' W 074°02'2 3.8
2018-Jul-22 11:28N 40°41' W 074°01'8 6.9
2018-Jul-22 10:15N 40°34' W 073°55'617.0
2018-Jul-22 09:56N 40°35' W 074°02'717.2
2018-Jul-22 09:30N 40°43' W 074°03'0 0.0
2018-Jul-22 02:49N 40°43' W 074°02'2 5.7
2018-Jul-22 02:30N 40°42' W 074°00'9 6.2
2018-Jul-22 01:02N 40°34' W 073°55'520.7
2018-Jul-22 00:49N 40°34' W 074°01'514.2
2018-Jul-22 00:30N 40°39' W 074°02'4 6.1
2018-Jul-21 23:56N 40°42' W 074°00'512.7
2018-Jul-21 23:30N 40°37' W 074°03'6 5.8
2018-Jul-21 22:28N 40°34' W 073°56'714.4
2018-Jul-21 22:00N 40°39' W 074°02'4 5.8
2018-Jul-21 21:24N 40°42' W 074°00'11 9.3
2018-Jul-21 20:16N 40°35' W 073°50'519.5
2018-Jul-21 20:00N 40°34' W 073°56'613.0
2018-Jul-21 19:30N 40°39' W 074°02'4 7.0
2018-Jul-21 19:00N 40°42' W 074°00'10 8.6
2018-Jul-21 17:47N 40°35' W 073°50'622.5
2018-Jul-21 17:30N 40°34' W 073°58'611.1
2018-Jul-21 17:00N 40°39' W 074°02'4 6.8
2018-Jul-21 16:30N 40°42' W 074°00'10 8.4
2018-Jul-21 15:15N 40°35' W 073°50'622.9
2018-Jul-21 14:59N 40°34' W 073°58'611.7
2018-Jul-21 14:30N 40°39' W 074°02'3 6.6
2018-Jul-21 14:00N 40°42' W 074°00'612.3
2018-Jul-21 13:30N 40°36' W 074°02'7 8.5
2018-Jul-21 12:37N 40°34' W 073°53'323.4
2018-Jul-21 12:30N 40°34' W 073°56'713.2
2018-Jul-21 12:00N 40°39' W 074°02'3 5.3
2018-Jul-21 11:31N 40°41' W 074°01'9 6.6
2018-Jul-21 10:07N 40°34' W 073°53'321.4
2018-Jul-21 10:00N 40°34' W 073°56'918.8
2018-Jul-21 09:30N 40°42' W 074°02'1 2.1
2018-Jul-21 08:59N 40°43' W 074°03'0 0.0
2018-Jul-20 23:26N 40°43' W 074°02'2 3.9
2018-Jul-20 22:59N 40°42' W 074°00'511.2
2018-Jul-20 22:30N 40°37' W 074°03'1010.7
2018-Jul-20 21:35N 40°35' W 073°50'111.2
2018-Jul-20 21:30N 40°35' W 073°51'918.8
2018-Jul-20 21:00N 40°38' W 074°03'4 7.2
2018-Jul-20 20:25N 40°42' W 074°00'0 0.0
2018-Jul-20 19:58N 40°42' W 074°00'0 0.0
2018-Jul-20 19:28N 40°42' W 074°00'3 6.1
2018-Jul-20 19:00N 40°39' W 074°01'10 9.0
2018-Jul-20 17:56N 40°35' W 073°50'920.3
2018-Jul-20 17:31N 40°35' W 074°02'713.7
2018-Jul-20 16:59N 40°42' W 074°00'11 7.6
2018-Jul-20 15:36N 40°35' W 073°50'219.1
2018-Jul-20 15:30N 40°34' W 073°53'817.1
2018-Jul-20 15:00N 40°40' W 074°01'1 2.2
2018-Jul-20 14:31N 40°41' W 074°01'9 8.6
2018-Jul-20 13:28N 40°35' W 073°53'818.2
2018-Jul-20 13:00N 40°39' W 074°02'2 4.5
2018-Jul-20 12:31N 40°42' W 074°00'816.5
2018-Jul-20 12:00N 40°34' W 073°56'4 6.5
2018-Jul-20 11:27N 40°35' W 073°51'920.1
2018-Jul-20 11:00N 40°38' W 074°03'4 8.7
2018-Jul-20 10:30N 40°42' W 074°00'2 3.6
2018-Jul-20 09:55N 40°43' W 074°03'0 0.0
2018-Jul-19 23:01N 40°43' W 074°02'0 0.0
2018-Jul-19 23:01N 40°43' W 074°02'4 7.5
2018-Jul-19 22:30N 40°39' W 074°02'1011.9
2018-Jul-19 21:41N 40°35' W 073°50'419.7
2018-Jul-19 21:30N 40°34' W 073°55'918.2
2018-Jul-19 21:01N 40°41' W 074°02'1 2.9
2018-Jul-19 20:30N 40°42' W 074°00'1010.9
2018-Jul-19 19:33N 40°35' W 073°50'214.4
2018-Jul-19 19:26N 40°35' W 073°52'919.9
2018-Jul-19 19:00N 40°38' W 074°03'3 6.5
2018-Jul-19 18:30N 40°41' W 074°01'910.5
2018-Jul-19 17:37N 40°35' W 073°52'326.1
2018-Jul-19 17:29N 40°34' W 073°56'817.2
2018-Jul-19 17:00N 40°41' W 074°01'1 1.8
2018-Jul-19 16:30N 40°42' W 074°00'10 9.8
2018-Jul-19 15:29N 40°35' W 073°50'1020.4
2018-Jul-19 15:00N 40°38' W 074°03'5 9.3
2018-Jul-19 14:30N 40°42' W 074°00'10 9.3
2018-Jul-19 13:28N 40°35' W 073°51'920.3
2018-Jul-19 13:01N 40°38' W 074°03'4 8.4
2018-Jul-19 12:30N 40°42' W 074°00'1110.5
2018-Jul-19 11:30N 40°35' W 073°50'1020.0
2018-Jul-19 11:00N 40°37' W 074°03'510.5
2018-Jul-19 10:30N 40°42' W 074°00'2 0.2
2018-Jul-18 23:55N 40°44' W 074°01'2 3.7
2018-Jul-18 23:28N 40°43' W 074°02'2 3.4
2018-Jul-18 22:58N 40°42' W 074°00'612.6
2018-Jul-18 22:30N 40°36' W 074°02'1011.4
2018-Jul-18 21:40N 40°35' W 073°50'620.5
2018-Jul-18 21:23N 40°34' W 073°57'820.3
2018-Jul-18 21:00N 40°41' W 074°01'0 0.5
2018-Jul-18 20:31N 40°41' W 074°01'10 9.5
2018-Jul-18 19:29N 40°35' W 073°51'919.4
2018-Jul-18 19:00N 40°38' W 074°03'4 8.5
2018-Jul-18 18:30N 40°42' W 074°00'1010.6
2018-Jul-18 17:31N 40°35' W 073°50'0 8.3
2018-Jul-18 17:30N 40°35' W 073°51'1019.6
2018-Jul-18 17:00N 40°38' W 074°03'4 7.3
2018-Jul-18 16:30N 40°41' W 074°01'1010.8
2018-Jul-18 15:34N 40°35' W 073°50'422.7
2018-Jul-18 15:24N 40°34' W 073°55'718.6
2018-Jul-18 15:00N 40°39' W 074°02'2 3.6
2018-Jul-18 14:30N 40°41' W 074°01'9 8.3
2018-Jul-18 13:26N 40°34' W 073°53'819.7
2018-Jul-18 13:00N 40°38' W 074°02'3 5.8
2018-Jul-18 12:30N 40°41' W 074°01'10 9.8
2018-Jul-18 11:30N 40°35' W 073°51'1010.4
2018-Jul-18 10:30N 40°42' W 074°00'2 4.1
2018-Jul-18 10:00N 40°43' W 074°03'0 0.0
2018-Jul-17 23:28N 40°43' W 074°03'0 0.8
2018-Jul-17 22:59N 40°43' W 074°02'2 3.8
2018-Jul-17 22:31N 40°42' W 074°00'10 8.9
2018-Jul-17 21:25N 40°35' W 073°51'921.1
2018-Jul-17 21:00N 40°37' W 074°03'510.5
2018-Jul-17 20:30N 40°42' W 074°00'10 9.5
2018-Jul-17 19:27N 40°35' W 073°51'920.6
2018-Jul-17 19:00N 40°37' W 074°03'510.1
2018-Jul-17 18:30N 40°42' W 074°00'1010.5
2018-Jul-17 17:30N 40°35' W 073°50'1019.4
2018-Jul-17 17:00N 40°37' W 074°03'5 9.8
2018-Jul-17 16:30N 40°42' W 074°00'8 6.8
2018-Jul-17 15:17N 40°34' W 073°57'620.0
2018-Jul-17 14:59N 40°39' W 074°02'3 7.1
2018-Jul-17 14:30N 40°42' W 074°00'1010.4
2018-Jul-17 13:30N 40°35' W 073°50'1019.6
2018-Jul-17 13:00N 40°38' W 074°03'4 8.7
2018-Jul-17 12:31N 40°42' W 074°00'1010.8
2018-Jul-17 11:33N 40°35' W 073°50'217.9
2018-Jul-17 11:27N 40°35' W 073°52'819.3
2018-Jul-17 11:00N 40°39' W 074°02'4 6.6
2018-Jul-17 10:28N 40°42' W 074°00'2 4.3
2018-Jul-17 09:59N 40°43' W 074°03'0 0.0
2018-Jul-16 22:52N 40°43' W 074°02'2 4.9
2018-Jul-16 22:30N 40°42' W 074°00'10 9.7
2018-Jul-16 21:26N 40°35' W 073°50'921.7
2018-Jul-16 21:00N 40°36' W 074°03'611.9
2018-Jul-16 20:30N 40°42' W 074°00'1110.7
2018-Jul-16 19:31N 40°35' W 073°50'0 9.0
2018-Jul-16 19:30N 40°35' W 073°50'1019.6
2018-Jul-16 19:00N 40°37' W 074°03'510.4
2018-Jul-16 18:30N 40°42' W 074°00'1111.4
2018-Jul-16 17:35N 40°35' W 073°50'111.5
2018-Jul-16 17:29N 40°35' W 073°51'919.0
2018-Jul-16 17:00N 40°38' W 074°03'4 8.3
2018-Jul-16 16:30N 40°42' W 074°00'1011.1
2018-Jul-16 15:34N 40°35' W 073°50'218.1
2018-Jul-16 15:27N 40°34' W 073°53'818.9
2018-Jul-16 15:00N 40°39' W 074°02'4 7.7
2018-Jul-16 14:30N 40°42' W 074°00'1110.8
2018-Jul-16 13:32N 40°35' W 073°50'221.2
2018-Jul-16 13:26N 40°35' W 073°53'819.7
2018-Jul-16 13:00N 40°39' W 074°02'3 6.5
2018-Jul-16 12:30N 40°41' W 074°00'915.9
2018-Jul-16 11:57N 40°34' W 073°54'1 1.6
2018-Jul-16 11:26N 40°35' W 073°53'819.5
2018-Jul-16 11:01N 40°39' W 074°02'4 7.5
2018-Jul-16 10:31N 40°42' W 074°00'2 3.4
2018-Jul-16 10:00N 40°43' W 074°02'0 0.0
2018-Jul-16 02:40N 40°43' W 074°02'210.5
2018-Jul-16 02:30N 40°42' W 074°00'611.0
2018-Jul-16 01:59N 40°37' W 074°03'1011.6
2018-Jul-16 01:09N 40°35' W 073°50'320.5
2018-Jul-16 00:59N 40°34' W 073°54'715.2
2018-Jul-16 00:30N 40°39' W 074°02'4 6.3
2018-Jul-15 23:57N 40°42' W 074°00'10 7.7
2018-Jul-15 22:36N 40°35' W 073°51'326.3
2018-Jul-15 22:30N 40°34' W 073°54'714.2
2018-Jul-15 21:59N 40°39' W 074°02'4 7.0
2018-Jul-15 21:29N 40°42' W 074°00'5 3.0
2018-Jul-15 19:42N 40°37' W 074°03'2 9.7
2018-Jul-15 19:30N 40°39' W 074°02'3 6.6
2018-Jul-15 18:58N 40°42' W 074°00'4 2.3
2018-Jul-15 17:14N 40°38' W 074°02'2 6.7
2018-Jul-15 17:00N 40°40' W 074°01'2 3.2
2018-Jul-15 16:15N 40°42' W 074°00'6 4.1
2018-Jul-15 14:46N 40°36' W 074°02'3 9.6
2018-Jul-15 14:29N 40°39' W 074°02'3 6.1
2018-Jul-15 14:00N 40°42' W 074°00'5 3.2
2018-Jul-15 12:17N 40°36' W 074°02'3 9.4
2018-Jul-15 12:00N 40°39' W 074°02'3 6.2
2018-Jul-15 11:30N 40°42' W 074°00'9 6.4
2018-Jul-15 10:08N 40°34' W 073°56'425.7
2018-Jul-15 10:00N 40°34' W 074°01'917.7
2018-Jul-15 09:31N 40°43' W 074°03'0 0.1
2018-Jul-15 08:59N 40°43' W 074°03'0 0.1
2018-Jul-15 02:57N 40°43' W 074°02'2 4.9
2018-Jul-15 02:30N 40°41' W 074°01'10 8.1
2018-Jul-15 01:15N 40°35' W 073°50'521.9
2018-Jul-15 01:00N 40°34' W 073°57'713.5
2018-Jul-15 00:30N 40°40' W 074°02'2 4.1
2018-Jul-15 00:00N 40°41' W 074°00'10 8.0
2018-Jul-14 22:44N 40°35' W 073°50'623.3
2018-Jul-14 22:29N 40°34' W 073°57'612.8
2018-Jul-14 22:01N 40°39' W 074°02'1 2.4
2018-Jul-14 21:30N 40°40' W 074°01'10 8.5
2018-Jul-14 20:22N 40°35' W 073°50'822.9
2018-Jul-14 20:00N 40°35' W 074°01'713.7
2018-Jul-14 19:28N 40°42' W 074°00'511.2
2018-Jul-14 19:00N 40°37' W 074°03'1010.0
2018-Jul-14 18:00N 40°35' W 073°50'918.2
2018-Jul-14 17:30N 40°36' W 074°02'612.3
2018-Jul-14 17:00N 40°42' W 074°00'0 0.6
2018-Jul-14 16:30N 40°42' W 074°01'10 9.2
2018-Jul-14 15:24N 40°35' W 073°50'614.2
2018-Jul-14 15:00N 40°34' W 073°57'612.2
2018-Jul-14 14:30N 40°39' W 074°02'2 2.2
2018-Jul-14 13:30N 40°37' W 074°02'8 9.1
2018-Jul-14 12:38N 40°35' W 073°52'426.4
2018-Jul-14 12:28N 40°34' W 073°58'613.0
2018-Jul-14 12:00N 40°39' W 074°02'3 6.2
2018-Jul-14 11:30N 40°42' W 074°00'611.6
2018-Jul-14 11:01N 40°37' W 074°02'1018.7
2018-Jul-14 10:30N 40°35' W 073°50'3 6.9
2018-Jul-14 10:00N 40°34' W 073°54'917.5
2018-Jul-14 09:30N 40°41' W 074°02'2 4.1
2018-Jul-14 09:00N 40°43' W 074°03'0 0.0
2018-Jul-13 23:42N 40°43' W 074°02'0 0.0
2018-Jul-13 23:30N 40°43' W 074°02'2 3.5
2018-Jul-13 23:00N 40°42' W 074°00'11 9.1
2018-Jul-13 21:51N 40°35' W 073°50'823.7
2018-Jul-13 21:30N 40°34' W 074°01'815.5
2018-Jul-13 20:59N 40°42' W 074°00'1013.0
2018-Jul-13 20:15N 40°35' W 073°53'2 4.5
2018-Jul-13 19:49N 40°35' W 073°50'823.4
2018-Jul-13 19:28N 40°34' W 074°01'815.6
2018-Jul-13 18:58N 40°42' W 074°00'10 8.3
2018-Jul-13 17:43N 40°35' W 073°51'421.7
2018-Jul-13 17:30N 40°34' W 073°56'916.9
2018-Jul-13 16:59N 40°42' W 074°00'510.3
2018-Jul-13 16:30N 40°38' W 074°03'1012.0
2018-Jul-13 15:41N 40°35' W 073°50'316.3
2018-Jul-13 15:30N 40°34' W 073°54'816.5
2018-Jul-13 15:00N 40°40' W 074°01'0 0.0
2018-Jul-13 14:30N 40°40' W 074°01'9 8.7
2018-Jul-13 13:30N 40°34' W 073°53'816.6
2018-Jul-13 13:00N 40°39' W 074°02'3 5.2
2018-Jul-13 12:30N 40°41' W 074°00'917.2
2018-Jul-13 12:00N 40°34' W 073°55'4 7.1
2018-Jul-13 11:30N 40°35' W 073°50'1019.4
2018-Jul-13 11:00N 40°38' W 074°03'5 8.5
2018-Jul-13 10:28N 40°42' W 074°00'2 4.4
2018-Jul-13 09:59N 40°43' W 074°03'0 0.0
2018-Jul-12 23:18N 40°43' W 074°03'0 1.1
2018-Jul-12 22:59N 40°43' W 074°02'2 3.6
2018-Jul-12 22:30N 40°42' W 074°00'1010.0
2018-Jul-12 21:29N 40°35' W 073°51'1020.4
2018-Jul-12 21:00N 40°38' W 074°03'5 9.1
2018-Jul-12 20:30N 40°42' W 074°00'10 9.8
2018-Jul-12 19:30N 40°35' W 073°51'918.1
2018-Jul-12 19:00N 40°39' W 074°02'0 0.7
2018-Jul-12 18:30N 40°40' W 074°01'1012.1
2018-Jul-12 17:42N 40°35' W 073°50'419.0
2018-Jul-12 17:29N 40°34' W 073°55'  

Dump ship's entire track history